sensor_id;sensor_type;location;lat;lon;timestamp;pressure;altitude;pressure_sealevel;temperature;humidity
70745;BME280;59284;31.390;34.904;2023-01-25T00:02:04;95202.66;;;17.20;100.00
70745;BME280;59284;31.390;34.904;2023-01-25T00:04:29;95206.00;;;17.49;100.00
70745;BME280;59284;31.390;34.904;2023-01-25T00:06:55;95204.97;;;17.21;100.00
70745;BME280;59284;31.390;34.904;2023-01-25T00:09:22;95190.44;;;17.65;100.00
70745;BME280;59284;31.390;34.904;2023-01-25T00:11:49;95201.50;;;17.29;100.00
70745;BME280;59284;31.390;34.904;2023-01-25T00:14:15;95200.03;;;17.20;100.00
70745;BME280;59284;31.390;34.904;2023-01-25T00:16:41;95207.91;;;17.40;100.00
70745;BME280;59284;31.390;34.904;2023-01-25T00:19:08;95196.97;;;17.18;100.00
70745;BME280;59284;31.390;34.904;2023-01-25T00:21:35;95194.56;;;17.54;100.00
70745;BME280;59284;31.390;34.904;2023-01-25T00:24:04;95194.22;;;17.14;100.00
70745;BME280;59284;31.390;34.904;2023-01-25T00:26:31;95188.19;;;17.34;100.00
70745;BME280;59284;31.390;34.904;2023-01-25T00:28:57;95198.44;;;17.27;100.00
70745;BME280;59284;31.390;34.904;2023-01-25T00:36:50;95190.72;;;17.51;100.00
70745;BME280;59284;31.390;34.904;2023-01-25T00:39:17;95190.75;;;17.43;100.00
70745;BME280;59284;31.390;34.904;2023-01-25T00:41:43;95189.53;;;16.99;100.00
70745;BME280;59284;31.390;34.904;2023-01-25T00:44:09;95185.06;;;17.41;100.00
70745;BME280;59284;31.390;34.904;2023-01-25T00:46:35;95194.16;;;17.02;100.00
70745;BME280;59284;31.390;34.904;2023-01-25T00:49:04;95184.38;;;17.11;100.00
70745;BME280;59284;31.390;34.904;2023-01-25T00:51:29;95172.78;;;16.92;100.00
70745;BME280;59284;31.390;34.904;2023-01-25T00:53:55;95171.66;;;17.01;100.00
70745;BME280;59284;31.390;34.904;2023-01-25T00:56:21;95180.38;;;16.55;100.00
70745;BME280;59284;31.390;34.904;2023-01-25T00:58:47;95169.47;;;17.03;100.00
70745;BME280;59284;31.390;34.904;2023-01-25T01:01:13;95171.50;;;16.98;100.00
70745;BME280;59284;31.390;34.904;2023-01-25T01:03:38;95169.13;;;16.84;100.00
70745;BME280;59284;31.390;34.904;2023-01-25T01:06:07;95173.31;;;16.85;100.00
70745;BME280;59284;31.390;34.904;2023-01-25T01:08:35;95166.69;;;17.08;100.00
70745;BME280;59284;31.390;34.904;2023-01-25T01:11:08;95171.41;;;17.15;100.00
70745;BME280;59284;31.390;34.904;2023-01-25T01:13:34;95163.72;;;17.10;100.00
70745;BME280;59284;31.390;34.904;2023-01-25T01:16:07;95156.75;;;17.14;100.00
70745;BME280;59284;31.390;34.904;2023-01-25T01:18:40;95161.28;;;17.05;100.00
70745;BME280;59284;31.390;34.904;2023-01-25T01:21:07;95160.78;;;17.11;100.00
70745;BME280;59284;31.390;34.904;2023-01-25T01:23:34;95156.22;;;17.20;100.00
70745;BME280;59284;31.390;34.904;2023-01-25T01:26:04;95160.66;;;17.08;100.00
70745;BME280;59284;31.390;34.904;2023-01-25T01:28:32;95158.34;;;17.27;100.00
70745;BME280;59284;31.390;34.904;2023-01-25T01:31:02;95147.97;;;17.84;100.00
70745;BME280;59284;31.390;34.904;2023-01-25T01:33:29;95154.06;;;17.76;100.00
70745;BME280;59284;31.390;34.904;2023-01-25T01:35:55;95165.22;;;17.31;100.00
70745;BME280;59284;31.390;34.904;2023-01-25T01:38:21;95159.63;;;17.21;100.00
70745;BME280;59284;31.390;34.904;2023-01-25T01:40:47;95159.56;;;17.09;100.00
70745;BME280;59284;31.390;34.904;2023-01-25T01:43:22;95158.28;;;17.35;100.00
70745;BME280;59284;31.390;34.904;2023-01-25T01:48:30;95140.22;;;17.87;100.00
70745;BME280;59284;31.390;34.904;2023-01-25T01:51:00;95149.63;;;17.56;100.00
70745;BME280;59284;31.390;34.904;2023-01-25T01:53:29;95158.31;;;17.68;100.00
70745;BME280;59284;31.390;34.904;2023-01-25T01:55:59;95156.41;;;17.89;100.00
70745;BME280;59284;31.390;34.904;2023-01-25T01:58:28;95149.88;;;17.95;100.00
70745;BME280;59284;31.390;34.904;2023-01-25T02:00:54;95145.78;;;17.86;100.00
70745;BME280;59284;31.390;34.904;2023-01-25T02:03:27;95145.69;;;17.94;100.00
70745;BME280;59284;31.390;34.904;2023-01-25T02:06:00;95139.63;;;17.70;100.00
70745;BME280;59284;31.390;34.904;2023-01-25T02:08:32;95150.47;;;17.80;100.00
70745;BME280;59284;31.390;34.904;2023-01-25T02:11:06;95145.53;;;17.46;100.00
70745;BME280;59284;31.390;34.904;2023-01-25T02:13:36;95148.75;;;17.51;100.00
70745;BME280;59284;31.390;34.904;2023-01-25T02:16:03;95136.75;;;17.63;100.00
70745;BME280;59284;31.390;34.904;2023-01-25T02:18:35;95134.06;;;17.50;100.00
70745;BME280;59284;31.390;34.904;2023-01-25T02:21:01;95148.22;;;17.37;100.00
70745;BME280;59284;31.390;34.904;2023-01-25T02:24:14;95139.66;;;17.82;100.00
70745;BME280;59284;31.390;34.904;2023-01-25T02:26:54;95147.31;;;17.87;100.00
70745;BME280;59284;31.390;34.904;2023-01-25T02:29:21;95146.47;;;17.95;100.00
70745;BME280;59284;31.390;34.904;2023-01-25T02:31:57;95139.66;;;17.94;100.00
70745;BME280;59284;31.390;34.904;2023-01-25T02:34:23;95141.75;;;17.88;100.00
70745;BME280;59284;31.390;34.904;2023-01-25T02:36:52;95142.84;;;17.87;100.00
70745;BME280;59284;31.390;34.904;2023-01-25T02:39:19;95140.34;;;18.03;100.00
70745;BME280;59284;31.390;34.904;2023-01-25T02:41:46;95138.19;;;17.60;100.00
70745;BME280;59284;31.390;34.904;2023-01-25T02:44:24;95128.25;;;17.66;100.00
70745;BME280;59284;31.390;34.904;2023-01-25T02:46:51;95146.00;;;17.27;100.00
70745;BME280;59284;31.390;34.904;2023-01-25T02:49:17;95141.69;;;17.43;100.00
70745;BME280;59284;31.390;34.904;2023-01-25T02:51:47;95140.47;;;17.62;100.00
70745;BME280;59284;31.390;34.904;2023-01-25T02:54:15;95139.31;;;17.50;100.00
70745;BME280;59284;31.390;34.904;2023-01-25T02:56:41;95150.47;;;17.27;100.00
70745;BME280;59284;31.390;34.904;2023-01-25T02:59:08;95143.09;;;17.62;100.00
70745;BME280;59284;31.390;34.904;2023-01-25T03:01:39;95141.28;;;17.74;100.00
70745;BME280;59284;31.390;34.904;2023-01-25T03:04:06;95141.09;;;17.79;100.00
70745;BME280;59284;31.390;34.904;2023-01-25T03:06:32;95149.88;;;17.42;100.00
70745;BME280;59284;31.390;34.904;2023-01-25T03:08:59;95160.75;;;16.70;100.00
70745;BME280;59284;31.390;34.904;2023-01-25T03:11:24;95155.38;;;16.66;100.00
70745;BME280;59284;31.390;34.904;2023-01-25T03:13:50;95161.97;;;16.72;100.00
70745;BME280;59284;31.390;34.904;2023-01-25T03:16:16;95161.50;;;16.70;100.00
70745;BME280;59284;31.390;34.904;2023-01-25T03:18:42;95163.50;;;16.73;100.00
70745;BME280;59284;31.390;34.904;2023-01-25T03:21:13;95155.22;;;16.92;100.00
70745;BME280;59284;31.390;34.904;2023-01-25T03:23:41;95161.56;;;16.62;100.00
70745;BME280;59284;31.390;34.904;2023-01-25T03:26:09;95161.16;;;17.01;100.00
70745;BME280;59284;31.390;34.904;2023-01-25T03:28:36;95163.56;;;16.85;100.00
70745;BME280;59284;31.390;34.904;2023-01-25T03:31:05;95163.97;;;16.75;100.00
70745;BME280;59284;31.390;34.904;2023-01-25T03:33:31;95156.09;;;16.75;100.00
70745;BME280;59284;31.390;34.904;2023-01-25T03:35:57;95160.13;;;16.73;100.00
70745;BME280;59284;31.390;34.904;2023-01-25T03:38:24;95167.28;;;16.55;100.00
70745;BME280;59284;31.390;34.904;2023-01-25T03:40:50;95158.47;;;16.89;100.00
70745;BME280;59284;31.390;34.904;2023-01-25T03:43:15;95161.16;;;16.80;100.00
70745;BME280;59284;31.390;34.904;2023-01-25T03:45:41;95170.88;;;16.80;100.00
70745;BME280;59284;31.390;34.904;2023-01-25T03:48:07;95171.03;;;16.46;100.00
70745;BME280;59284;31.390;34.904;2023-01-25T03:50:33;95166.03;;;16.24;100.00
70745;BME280;59284;31.390;34.904;2023-01-25T03:53:06;95167.75;;;17.07;100.00
70745;BME280;59284;31.390;34.904;2023-01-25T03:55:41;95164.72;;;16.76;100.00
70745;BME280;59284;31.390;34.904;2023-01-25T03:58:07;95166.44;;;16.72;100.00
70745;BME280;59284;31.390;34.904;2023-01-25T04:00:33;95168.19;;;17.09;100.00
70745;BME280;59284;31.390;34.904;2023-01-25T04:02:58;95171.63;;;16.80;100.00
70745;BME280;59284;31.390;34.904;2023-01-25T04:05:24;95166.13;;;16.73;100.00
70745;BME280;59284;31.390;34.904;2023-01-25T04:07:50;95168.78;;;16.65;100.00
70745;BME280;59284;31.390;34.904;2023-01-25T04:10:16;95173.63;;;16.54;100.00
70745;BME280;59284;31.390;34.904;2023-01-25T04:12:41;95167.88;;;16.61;100.00
70745;BME280;59284;31.390;34.904;2023-01-25T04:15:08;95174.88;;;16.48;100.00
70745;BME280;59284;31.390;34.904;2023-01-25T04:17:34;95177.47;;;16.57;100.00
70745;BME280;59284;31.390;34.904;2023-01-25T04:20:00;95172.34;;;16.60;100.00
70745;BME280;59284;31.390;34.904;2023-01-25T04:22:25;95176.56;;;16.53;100.00
70745;BME280;59284;31.390;34.904;2023-01-25T04:24:51;95179.91;;;16.62;100.00
70745;BME280;59284;31.390;34.904;2023-01-25T04:27:20;95175.88;;;17.14;100.00
70745;BME280;59284;31.390;34.904;2023-01-25T04:29:46;95178.72;;;16.42;100.00
70745;BME280;59284;31.390;34.904;2023-01-25T04:32:11;95181.06;;;16.73;100.00
70745;BME280;59284;31.390;34.904;2023-01-25T04:34:37;95173.44;;;16.89;100.00
70745;BME280;59284;31.390;34.904;2023-01-25T04:37:03;95181.44;;;16.63;100.00
70745;BME280;59284;31.390;34.904;2023-01-25T04:39:28;95182.16;;;16.72;100.00
70745;BME280;59284;31.390;34.904;2023-01-25T04:41:54;95184.09;;;17.04;100.00
70745;BME280;59284;31.390;34.904;2023-01-25T04:44:20;95185.41;;;16.69;100.00
70745;BME280;59284;31.390;34.904;2023-01-25T04:46:46;95179.72;;;17.58;100.00
70745;BME280;59284;31.390;34.904;2023-01-25T04:49:13;95178.16;;;17.57;100.00
70745;BME280;59284;31.390;34.904;2023-01-25T04:51:39;95189.59;;;17.11;100.00
70745;BME280;59284;31.390;34.904;2023-01-25T04:54:05;95185.84;;;17.00;100.00
70745;BME280;59284;31.390;34.904;2023-01-25T04:56:31;95193.84;;;17.24;100.00
70745;BME280;59284;31.390;34.904;2023-01-25T04:59:00;95182.19;;;17.54;100.00
70745;BME280;59284;31.390;34.904;2023-01-25T05:01:25;95195.19;;;17.30;100.00
70745;BME280;59284;31.390;34.904;2023-01-25T05:03:51;95187.25;;;17.18;100.00
70745;BME280;59284;31.390;34.904;2023-01-25T05:06:20;95195.38;;;17.67;100.00
70745;BME280;59284;31.390;34.904;2023-01-25T05:08:46;95188.63;;;17.78;100.00
70745;BME280;59284;31.390;34.904;2023-01-25T05:11:11;95191.34;;;18.26;100.00
70745;BME280;59284;31.390;34.904;2023-01-25T05:13:37;95187.63;;;18.15;100.00
70745;BME280;59284;31.390;34.904;2023-01-25T05:16:04;95187.41;;;18.20;100.00
70745;BME280;59284;31.390;34.904;2023-01-25T05:18:30;95182.22;;;18.80;100.00
70745;BME280;59284;31.390;34.904;2023-01-25T05:20:56;95185.53;;;18.53;100.00
70745;BME280;59284;31.390;34.904;2023-01-25T05:23:21;95190.84;;;18.81;100.00
70745;BME280;59284;31.390;34.904;2023-01-25T05:25:47;95192.50;;;18.73;100.00
70745;BME280;59284;31.390;34.904;2023-01-25T05:28:34;95193.28;;;18.74;100.00
70745;BME280;59284;31.390;34.904;2023-01-25T05:31:03;95195.00;;;19.58;100.00
70745;BME280;59284;31.390;34.904;2023-01-25T05:33:29;95197.13;;;19.28;100.00
70745;BME280;59284;31.390;34.904;2023-01-25T05:35:55;95197.38;;;19.35;100.00
70745;BME280;59284;31.390;34.904;2023-01-25T05:38:23;95195.06;;;19.61;100.00
70745;BME280;59284;31.390;34.904;2023-01-25T05:40:49;95195.84;;;19.62;100.00
70745;BME280;59284;31.390;34.904;2023-01-25T05:43:15;95198.34;;;19.43;100.00
70745;BME280;59284;31.390;34.904;2023-01-25T05:45:40;95195.53;;;20.07;100.00
70745;BME280;59284;31.390;34.904;2023-01-25T05:48:06;95203.22;;;19.84;100.00
70745;BME280;59284;31.390;34.904;2023-01-25T05:50:49;95200.84;;;20.38;100.00
70745;BME280;59284;31.390;34.904;2023-01-25T05:53:15;95201.16;;;20.21;100.00
70745;BME280;59284;31.390;34.904;2023-01-25T05:55:42;95198.47;;;20.33;100.00
70745;BME280;59284;31.390;34.904;2023-01-25T05:58:07;95206.09;;;20.54;100.00
70745;BME280;59284;31.390;34.904;2023-01-25T06:00:36;95215.41;;;21.14;100.00
70745;BME280;59284;31.390;34.904;2023-01-25T06:03:02;95221.75;;;20.78;100.00
70745;BME280;59284;31.390;34.904;2023-01-25T06:05:28;95221.84;;;20.66;100.00
70745;BME280;59284;31.390;34.904;2023-01-25T06:07:53;95219.66;;;21.02;100.00
70745;BME280;59284;31.390;34.904;2023-01-25T06:10:19;95221.22;;;21.57;100.00
70745;BME280;59284;31.390;34.904;2023-01-25T06:12:45;95223.25;;;21.10;100.00
70745;BME280;59284;31.390;34.904;2023-01-25T06:15:11;95226.00;;;21.33;100.00
70745;BME280;59284;31.390;34.904;2023-01-25T06:17:36;95223.91;;;21.23;100.00
70745;BME280;59284;31.390;34.904;2023-01-25T06:20:02;95229.78;;;21.51;100.00
70745;BME280;59284;31.390;34.904;2023-01-25T06:22:28;95234.59;;;21.45;100.00
70745;BME280;59284;31.390;34.904;2023-01-25T06:24:53;95238.66;;;21.43;100.00
70745;BME280;59284;31.390;34.904;2023-01-25T06:27:19;95244.38;;;21.45;100.00
70745;BME280;59284;31.390;34.904;2023-01-25T06:29:45;95250.56;;;21.72;100.00
70745;BME280;59284;31.390;34.904;2023-01-25T06:32:10;95252.38;;;22.25;100.00
70745;BME280;59284;31.390;34.904;2023-01-25T06:34:36;95250.09;;;22.46;100.00
70745;BME280;59284;31.390;34.904;2023-01-25T06:37:02;95257.34;;;22.07;100.00
70745;BME280;59284;31.390;34.904;2023-01-25T06:39:28;95256.81;;;22.21;100.00
70745;BME280;59284;31.390;34.904;2023-01-25T06:41:54;95258.09;;;21.89;100.00
70745;BME280;59284;31.390;34.904;2023-01-25T06:44:21;95266.22;;;21.80;100.00
70745;BME280;59284;31.390;34.904;2023-01-25T06:46:46;95256.00;;;22.81;100.00
70745;BME280;59284;31.390;34.904;2023-01-25T06:49:12;95258.31;;;22.41;100.00
70745;BME280;59284;31.390;34.904;2023-01-25T06:51:38;95267.41;;;22.21;100.00
70745;BME280;59284;31.390;34.904;2023-01-25T06:54:03;95264.00;;;21.28;100.00
70745;BME280;59284;31.390;34.904;2023-01-25T06:56:29;95267.38;;;22.40;100.00
70745;BME280;59284;31.390;34.904;2023-01-25T06:58:56;95262.53;;;22.23;100.00
70745;BME280;59284;31.390;34.904;2023-01-25T07:01:23;95274.06;;;20.91;100.00
70745;BME280;59284;31.390;34.904;2023-01-25T07:03:56;95266.31;;;21.84;100.00
70745;BME280;59284;31.390;34.904;2023-01-25T07:06:23;95273.78;;;20.34;100.00
70745;BME280;59284;31.390;34.904;2023-01-25T07:08:50;95275.56;;;21.58;100.00
70745;BME280;59284;31.390;34.904;2023-01-25T07:11:18;95271.41;;;21.77;100.00
70745;BME280;59284;31.390;34.904;2023-01-25T07:13:48;95276.81;;;21.64;100.00
70745;BME280;59284;31.390;34.904;2023-01-25T07:16:16;95278.06;;;21.86;100.00
70745;BME280;59284;31.390;34.904;2023-01-25T07:18:45;95272.19;;;22.57;100.00
70745;BME280;59284;31.390;34.904;2023-01-25T07:21:19;95271.66;;;22.48;100.00
70745;BME280;59284;31.390;34.904;2023-01-25T07:23:46;95272.50;;;22.97;100.00
70745;BME280;59284;31.390;34.904;2023-01-25T07:26:20;95285.13;;;20.97;100.00
70745;BME280;59284;31.390;34.904;2023-01-25T07:28:46;95284.06;;;22.25;100.00
70745;BME280;59284;31.390;34.904;2023-01-25T07:31:16;95285.09;;;22.40;100.00
70745;BME280;59284;31.390;34.904;2023-01-25T07:33:42;95284.59;;;20.91;100.00
70745;BME280;59284;31.390;34.904;2023-01-25T07:36:09;95281.56;;;22.13;100.00
70745;BME280;59284;31.390;34.904;2023-01-25T07:38:36;95281.59;;;21.94;100.00
70745;BME280;59284;31.390;34.904;2023-01-25T07:41:02;95293.44;;;21.30;100.00
70745;BME280;59284;31.390;34.904;2023-01-25T07:43:28;95285.22;;;22.05;100.00
70745;BME280;59284;31.390;34.904;2023-01-25T07:46:03;95286.88;;;22.55;100.00
70745;BME280;59284;31.390;34.904;2023-01-25T07:48:33;95288.84;;;22.38;100.00
70745;BME280;59284;31.390;34.904;2023-01-25T07:51:00;95293.78;;;21.29;100.00
70745;BME280;59284;31.390;34.904;2023-01-25T07:53:48;95305.56;;;19.86;100.00
70745;BME280;59284;31.390;34.904;2023-01-25T07:56:19;95294.97;;;21.66;100.00
70745;BME280;59284;31.390;34.904;2023-01-25T07:58:47;95293.78;;;21.29;100.00
70745;BME280;59284;31.390;34.904;2023-01-25T08:01:20;95291.41;;;21.24;100.00
70745;BME280;59284;31.390;34.904;2023-01-25T08:03:47;95284.97;;;21.75;100.00
70745;BME280;59284;31.390;34.904;2023-01-25T08:06:15;95296.09;;;21.15;100.00
70745;BME280;59284;31.390;34.904;2023-01-25T08:08:46;95279.63;;;22.29;100.00
70745;BME280;59284;31.390;34.904;2023-01-25T08:11:18;95283.38;;;22.28;100.00
70745;BME280;59284;31.390;34.904;2023-01-25T08:13:45;95291.44;;;21.78;100.00
70745;BME280;59284;31.390;34.904;2023-01-25T08:16:12;95271.31;;;24.03;100.00
70745;BME280;59284;31.390;34.904;2023-01-25T08:18:39;95262.94;;;25.26;100.00
70745;BME280;59284;31.390;34.904;2023-01-25T08:21:05;95260.50;;;27.14;100.00
70745;BME280;59284;31.390;34.904;2023-01-25T08:23:30;95259.69;;;26.39;100.00
70745;BME280;59284;31.390;34.904;2023-01-25T08:26:04;95258.16;;;26.24;100.00
70745;BME280;59284;31.390;34.904;2023-01-25T08:28:30;95250.03;;;28.01;100.00
70745;BME280;59284;31.390;34.904;2023-01-25T08:31:09;95251.03;;;28.31;100.00
70745;BME280;59284;31.390;34.904;2023-01-25T08:33:36;95255.75;;;27.92;100.00
70745;BME280;59284;31.390;34.904;2023-01-25T08:36:01;95242.25;;;28.89;100.00
70745;BME280;59284;31.390;34.904;2023-01-25T08:38:27;95243.28;;;29.43;100.00
70745;BME280;59284;31.390;34.904;2023-01-25T08:40:54;95238.22;;;29.52;100.00
70745;BME280;59284;31.390;34.904;2023-01-25T08:43:19;95242.72;;;29.25;100.00
70745;BME280;59284;31.390;34.904;2023-01-25T08:45:45;95228.63;;;29.21;100.00
70745;BME280;59284;31.390;34.904;2023-01-25T08:48:12;95232.09;;;30.19;100.00
70745;BME280;59284;31.390;34.904;2023-01-25T08:50:49;95236.31;;;28.68;100.00
70745;BME280;59284;31.390;34.904;2023-01-25T08:53:18;95227.31;;;28.95;100.00
70745;BME280;59284;31.390;34.904;2023-01-25T08:55:44;95233.59;;;29.56;100.00
70745;BME280;59284;31.390;34.904;2023-01-25T08:58:13;95241.72;;;28.61;100.00
70745;BME280;59284;31.390;34.904;2023-01-25T09:00:41;95229.91;;;29.80;100.00
70745;BME280;59284;31.390;34.904;2023-01-25T09:03:07;95234.31;;;28.17;100.00
70745;BME280;59284;31.390;34.904;2023-01-25T09:05:34;95229.16;;;28.50;100.00
70745;BME280;59284;31.390;34.904;2023-01-25T09:08:01;95230.44;;;28.28;100.00
70745;BME280;59284;31.390;34.904;2023-01-25T09:10:26;95218.94;;;29.34;100.00
70745;BME280;59284;31.390;34.904;2023-01-25T09:12:52;95220.44;;;28.94;100.00
70745;BME280;59284;31.390;34.904;2023-01-25T09:15:18;95216.97;;;30.86;100.00
70745;BME280;59284;31.390;34.904;2023-01-25T09:17:44;95196.31;;;31.72;100.00
70745;BME280;59284;31.390;34.904;2023-01-25T09:20:10;95218.97;;;27.55;100.00
70745;BME280;59284;31.390;34.904;2023-01-25T09:22:36;95207.03;;;29.01;100.00
70745;BME280;59284;31.390;34.904;2023-01-25T09:25:02;95190.72;;;31.00;100.00
70745;BME280;59284;31.390;34.904;2023-01-25T09:27:28;95190.25;;;30.59;100.00
70745;BME280;59284;31.390;34.904;2023-01-25T09:29:53;95178.19;;;31.76;100.00
70745;BME280;59284;31.390;34.904;2023-01-25T09:32:19;95179.13;;;30.61;100.00
70745;BME280;59284;31.390;34.904;2023-01-25T09:34:45;95175.97;;;32.10;100.00
70745;BME280;59284;31.390;34.904;2023-01-25T09:37:10;95179.41;;;30.43;100.00
70745;BME280;59284;31.390;34.904;2023-01-25T09:39:36;95173.47;;;30.28;100.00
70745;BME280;59284;31.390;34.904;2023-01-25T09:45:14;95154.13;;;31.33;100.00
70745;BME280;59284;31.390;34.904;2023-01-25T09:50:35;95141.41;;;31.57;100.00
70745;BME280;59284;31.390;34.904;2023-01-25T09:55:38;95140.66;;;34.29;100.00
70745;BME280;59284;31.390;34.904;2023-01-25T09:58:04;95133.56;;;34.10;100.00
70745;BME280;59284;31.390;34.904;2023-01-25T10:00:41;95136.56;;;34.84;100.00
70745;BME280;59284;31.390;34.904;2023-01-25T10:03:26;95125.00;;;31.55;100.00
70745;BME280;59284;31.390;34.904;2023-01-25T10:05:58;95117.31;;;33.18;100.00
70745;BME280;59284;31.390;34.904;2023-01-25T10:08:28;95129.25;;;32.24;100.00
70745;BME280;59284;31.390;34.904;2023-01-25T10:11:01;95129.66;;;31.31;100.00
70745;BME280;59284;31.390;34.904;2023-01-25T10:13:29;95126.00;;;33.79;100.00
70745;BME280;59284;31.390;34.904;2023-01-25T10:16:05;95114.59;;;34.26;100.00
70745;BME280;59284;31.390;34.904;2023-01-25T10:18:39;95113.50;;;35.60;100.00
70745;BME280;59284;31.390;34.904;2023-01-25T10:21:20;95109.03;;;31.48;100.00
70745;BME280;59284;31.390;34.904;2023-01-25T10:24:05;95118.75;;;31.77;100.00
70745;BME280;59284;31.390;34.904;2023-01-25T10:26:36;95112.31;;;32.59;100.00
70745;BME280;59284;31.390;34.904;2023-01-25T10:29:20;95109.63;;;32.27;100.00
70745;BME280;59284;31.390;34.904;2023-01-25T10:31:48;95091.28;;;35.35;100.00
70745;BME280;59284;31.390;34.904;2023-01-25T10:34:27;95095.00;;;32.76;100.00
70745;BME280;59284;31.390;34.904;2023-01-25T10:36:56;95094.25;;;32.76;100.00
70745;BME280;59284;31.390;34.904;2023-01-25T10:39:25;95100.75;;;31.78;100.00
70745;BME280;59284;31.390;34.904;2023-01-25T10:42:04;95092.50;;;33.27;100.00
70745;BME280;59284;31.390;34.904;2023-01-25T10:44:31;95098.34;;;30.85;100.00
70745;BME280;59284;31.390;34.904;2023-01-25T10:52:16;95089.81;;;31.69;100.00
70745;BME280;59284;31.390;34.904;2023-01-25T10:54:42;95091.19;;;31.77;100.00
70745;BME280;59284;31.390;34.904;2023-01-25T10:57:13;95086.22;;;31.20;100.00
70745;BME280;59284;31.390;34.904;2023-01-25T10:59:45;95085.66;;;33.38;100.00
70745;BME280;59284;31.390;34.904;2023-01-25T11:07:51;95074.03;;;34.54;100.00
70745;BME280;59284;31.390;34.904;2023-01-25T11:10:31;95082.19;;;32.19;100.00
70745;BME280;59284;31.390;34.904;2023-01-25T11:18:52;95075.28;;;33.78;98.58
70745;BME280;59284;31.390;34.904;2023-01-25T11:21:23;95068.31;;;32.98;98.94
70745;BME280;59284;31.390;34.904;2023-01-25T11:24:02;95065.75;;;34.83;96.96
70745;BME280;59284;31.390;34.904;2023-01-25T11:26:29;95065.47;;;35.03;94.09
70745;BME280;59284;31.390;34.904;2023-01-25T11:29:17;95070.44;;;33.60;98.87
70745;BME280;59284;31.390;34.904;2023-01-25T11:31:48;95056.44;;;38.54;92.23
70745;BME280;59284;31.390;34.904;2023-01-25T11:34:17;95061.19;;;34.12;95.75
70745;BME280;59284;31.390;34.904;2023-01-25T11:42:32;95051.31;;;32.27;100.00
70745;BME280;59284;31.390;34.904;2023-01-25T11:51:22;95044.50;;;34.85;94.83
70745;BME280;59284;31.390;34.904;2023-01-25T12:24:41;95049.63;;;33.36;100.00
70745;BME280;59284;31.390;34.904;2023-01-25T12:30:20;95061.59;;;30.66;100.00
70745;BME280;59284;31.390;34.904;2023-01-25T12:32:53;95072.09;;;30.30;100.00
70745;BME280;59284;31.390;34.904;2023-01-25T12:36:00;95066.72;;;29.84;100.00
70745;BME280;59284;31.390;34.904;2023-01-25T12:38:39;95055.41;;;32.64;100.00
70745;BME280;59284;31.390;34.904;2023-01-25T12:41:28;95068.81;;;30.23;100.00
70745;BME280;59284;31.390;34.904;2023-01-25T12:44:08;95055.34;;;31.32;100.00
70745;BME280;59284;31.390;34.904;2023-01-25T12:47:03;95058.47;;;31.82;100.00
70745;BME280;59284;31.390;34.904;2023-01-25T12:52:13;95070.06;;;29.35;100.00
70745;BME280;59284;31.390;34.904;2023-01-25T12:54:41;95062.78;;;31.44;100.00
70745;BME280;59284;31.390;34.904;2023-01-25T12:57:25;95074.72;;;30.11;100.00
70745;BME280;59284;31.390;34.904;2023-01-25T13:05:45;95070.00;;;30.65;100.00
70745;BME280;59284;31.390;34.904;2023-01-25T13:11:24;95075.75;;;29.03;100.00
70745;BME280;59284;31.390;34.904;2023-01-25T13:16:44;95070.41;;;28.21;100.00
70745;BME280;59284;31.390;34.904;2023-01-25T13:21:55;95083.06;;;29.90;100.00
70745;BME280;59284;31.390;34.904;2023-01-25T13:24:28;95065.66;;;31.33;100.00
70745;BME280;59284;31.390;34.904;2023-01-25T13:32:10;95077.66;;;28.24;100.00
70745;BME280;59284;31.390;34.904;2023-01-25T13:39:58;95077.22;;;26.84;100.00
70745;BME280;59284;31.390;34.904;2023-01-25T13:42:35;95077.00;;;27.48;100.00
70745;BME280;59284;31.390;34.904;2023-01-25T13:45:19;95080.16;;;27.14;100.00
70745;BME280;59284;31.390;34.904;2023-01-25T13:48:02;95078.88;;;27.51;100.00
70745;BME280;59284;31.390;34.904;2023-01-25T13:50:33;95088.97;;;26.94;100.00
70745;BME280;59284;31.390;34.904;2023-01-25T13:53:04;95095.88;;;26.56;100.00
70745;BME280;59284;31.390;34.904;2023-01-25T13:55:39;95089.03;;;27.70;100.00
70745;BME280;59284;31.390;34.904;2023-01-25T13:58:15;95090.41;;;27.99;100.00
70745;BME280;59284;31.390;34.904;2023-01-25T14:00:53;95095.03;;;28.39;100.00
70745;BME280;59284;31.390;34.904;2023-01-25T14:03:49;95099.69;;;26.41;100.00
70745;BME280;59284;31.390;34.904;2023-01-25T14:06:22;95106.06;;;25.66;100.00
70745;BME280;59284;31.390;34.904;2023-01-25T14:08:50;95108.25;;;24.71;100.00
70745;BME280;59284;31.390;34.904;2023-01-25T14:11:19;95101.22;;;26.10;100.00
70745;BME280;59284;31.390;34.904;2023-01-25T14:13:58;95099.66;;;25.92;100.00
70745;BME280;59284;31.390;34.904;2023-01-25T14:16:25;95105.19;;;25.41;100.00
70745;BME280;59284;31.390;34.904;2023-01-25T14:18:51;95110.31;;;24.95;100.00
70745;BME280;59284;31.390;34.904;2023-01-25T14:21:18;95105.31;;;25.72;100.00
70745;BME280;59284;31.390;34.904;2023-01-25T14:23:44;95119.47;;;24.03;100.00
70745;BME280;59284;31.390;34.904;2023-01-25T14:26:19;95116.50;;;23.04;100.00
70745;BME280;59284;31.390;34.904;2023-01-25T14:28:48;95121.97;;;23.52;100.00
70745;BME280;59284;31.390;34.904;2023-01-25T14:31:21;95120.59;;;22.50;100.00
70745;BME280;59284;31.390;34.904;2023-01-25T14:33:47;95131.16;;;22.23;100.00
70745;BME280;59284;31.390;34.904;2023-01-25T14:36:20;95127.22;;;23.19;100.00
70745;BME280;59284;31.390;34.904;2023-01-25T14:38:46;95124.31;;;23.57;100.00